Sunflower Hakata — JL6711 — position and weather

sailwx.info

Track history (hours):
 
Tides and Currents Weather Stations Pressure Air Temp Water Temp Dewpoint Dewpoint Depression Visibility Wind Speed Wind Dir Waves Ship Positions

Sunflower Hakata

Last reported at 2018-Jul-19 15:39 UTC. Time now 2018-Jul-21 07:54 UTC.
Position N 34°46' E 139°14'.

Length 167 m; draft 6.6 m.

Type: Cargo ship. MMSI: 431501764.

Date/timePositionNaut miles runAvg speedWind from/ knotsBaromVisibWave heightAir tempDewpointWater temp
2018-Jul-19 15:39N 34°46' E 139°14'519.7
2018-Jul-19 15:24N 34°50' E 139°17'1019.5
2018-Jul-19 14:55N 34°56' E 139°27'1820.1
2018-Jul-19 14:01N 35°07' E 139°44'815.8
2018-Jul-19 13:30N 35°15' E 139°46'713.1
2018-Jul-19 13:00N 35°21' E 139°42'918.3
2018-Jul-19 12:30N 35°28' E 139°49'714.1
2018-Jul-19 12:00N 35°35' E 139°48'2 0.4
2018-Jul-19 07:15N 35°37' E 139°48'0 0.0
2018-Jul-19 06:57N 35°37' E 139°48'0 0.0
2018-Jul-19 06:27N 35°37' E 139°48'0 0.0
2018-Jul-19 05:45N 35°37' E 139°48'0 0.0
2018-Jul-19 05:27N 35°37' E 139°48'0 0.0
2018-Jul-19 04:57N 35°37' E 139°48'0 0.0
2018-Jul-19 02:21N 35°37' E 139°48'0 0.0
2018-Jul-19 00:33N 35°37' E 139°48'0 0.0
2018-Jul-18 20:35N 35°37' E 139°48'0 0.0
2018-Jul-18 20:30N 35°37' E 139°48'1 1.9
2018-Jul-18 20:01N 35°36' E 139°47'815.7
2018-Jul-18 19:31N 35°29' E 139°52'816.5
2018-Jul-18 19:00N 35°22' E 139°45'611.8
2018-Jul-18 18:30N 35°17' E 139°46'714.0
2018-Jul-18 18:00N 35°10' E 139°46'1019.6
2018-Jul-18 17:30N 35°01' E 139°41'1121.1
2018-Jul-18 16:59N 34°54' E 139°30'1121.1
2018-Jul-18 16:29N 34°49' E 139°19'21420.7
2018-Jul-18 06:10N 33°38' E 135°15'522.2
2018-Jul-18 05:57N 33°41' E 135°11'1022.4
2018-Jul-18 05:30N 33°49' E 135°03'1121.3
2018-Jul-18 05:00N 33°58' E 134°58'1122.2
2018-Jul-18 04:30N 34°09' E 134°58'1122.1
2018-Jul-18 04:00N 34°21' E 134°59'1121.8
2018-Jul-18 03:30N 34°31' E 135°02'713.1
2018-Jul-18 02:58N 34°36' E 134°56'920.8
2018-Jul-18 02:30N 34°32' E 134°46'1121.6
2018-Jul-18 02:00N 34°34' E 134°33'1121.7
2018-Jul-18 01:30N 34°35' E 134°20'  
2018-Jul-15 02:14N 33°26' E 134°59'19321.3
2018-Jul-14 17:10N 34°29' E 138°39'820.6
2018-Jul-14 16:46N 34°31' E 138°49'1718.8
2018-Jul-14 15:52N 34°40' E 139°07'719.7
2018-Jul-14 15:30N 34°45' E 139°13'919.2
2018-Jul-14 15:01N 34°52' E 139°20'1019.6
2018-Jul-14 14:30N 34°58' E 139°29'2019.8
2018-Jul-14 13:31N 35°12' E 139°46'612.3
2018-Jul-14 13:00N 35°18' E 139°44'714.7
2018-Jul-14 12:31N 35°25' E 139°44'918.0
2018-Jul-14 12:00N 35°32' E 139°51'610.3
2018-Jul-14 11:28N 35°37' E 139°48'0 0.0
2018-Jul-14 10:52N 35°37' E 139°48'0 0.0
2018-Jul-14 10:16N 35°37' E 139°48'0 0.0
2018-Jul-14 08:40N 35°37' E 139°48'0 0.0
2018-Jul-14 08:28N 35°37' E 139°48'0 0.0
2018-Jul-14 07:22N 35°37' E 139°48'0 0.0
2018-Jul-14 06:58N 35°37' E 139°48'0 0.0
2018-Jul-14 06:22N 35°37' E 139°48'0 0.0
2018-Jul-14 05:10N 35°37' E 139°48'0 0.0
2018-Jul-14 01:22N 35°37' E 139°48'0 0.0
2018-Jul-13 23:58N 35°37' E 139°48'0 0.0
2018-Jul-13 23:28N 35°37' E 139°48'0 0.0
2018-Jul-13 22:58N 35°37' E 139°48'0 0.0
2018-Jul-13 22:28N 35°37' E 139°48'0 0.0
2018-Jul-13 21:46N 35°37' E 139°48'0 0.0
2018-Jul-13 21:28N 35°37' E 139°48'0 0.0
2018-Jul-13 20:58N 35°37' E 139°48'0 0.0
2018-Jul-13 20:30N 35°37' E 139°48'1 2.6
2018-Jul-13 20:00N 35°36' E 139°47'815.2
2018-Jul-13 19:30N 35°29' E 139°52'816.4
2018-Jul-13 19:00N 35°22' E 139°45'611.9
2018-Jul-13 18:30N 35°16' E 139°46'714.9
2018-Jul-13 18:00N 35°09' E 139°47'1019.1
2018-Jul-13 17:30N 35°02' E 139°39'1020.3
2018-Jul-13 17:00N 34°56' E 139°29'1120.9
2018-Jul-13 16:30N 34°49' E 139°19'3220.0
2018-Jul-13 14:53N 34°29' E 138°48'820.2
2018-Jul-13 14:30N 34°27' E 138°39'2321.4
2018-Jul-13 13:27N 34°22' E 138°12'921.3
2018-Jul-13 13:00N 34°19' E 138°01'14520.0
2018-Jul-13 05:46N 33°40' E 135°13'623.2
2018-Jul-13 05:30N 33°44' E 135°08'1122.9
2018-Jul-13 05:00N 33°53' E 134°59'1223.2
2018-Jul-13 04:30N 34°04' E 134°59'1224.9
2018-Jul-13 04:01N 34°17' E 134°58'1223.5
2018-Jul-13 03:30N 34°28' E 135°01'917.0
2018-Jul-13 02:59N 34°37' E 134°58'1223.3
2018-Jul-13 02:29N 34°32' E 134°45'1122.1
2018-Jul-13 02:00N 34°33' E 134°32'1122.5
2018-Jul-13 01:30N 34°35' E 134°19'18 4.6
2018-Jul-12 21:29N 34°29' E 133°57'  
2018-Jul-10 16:41N 34°42' E 139°07'717.8
2018-Jul-10 16:18N 34°47' E 139°13'517.9
2018-Jul-10 16:00N 34°51' E 139°17'916.4
2018-Jul-10 15:28N 34°56' E 139°26'817.6
2018-Jul-10 15:00N 35°01' E 139°34'1019.7
2018-Jul-10 14:30N 35°07' E 139°43'816.3
2018-Jul-10 14:01N 35°14' E 139°46'612.6
2018-Jul-10 13:30N 35°20' E 139°42'816.8
2018-Jul-10 13:00N 35°27' E 139°48'713.2
2018-Jul-10 12:29N 35°34' E 139°49'3 6.9
2018-Jul-10 12:00N 35°37' E 139°48'0 0.0
2018-Jul-10 11:30N 35°37' E 139°48'0 0.0
2018-Jul-10 11:00N 35°37' E 139°48'0 0.0
2018-Jul-10 10:24N 35°37' E 139°48'0 0.0
2018-Jul-10 09:48N 35°37' E 139°48'0 0.0
2018-Jul-10 09:24N 35°37' E 139°48'0 0.0
2018-Jul-10 08:54N 35°37' E 139°48'0 0.0
2018-Jul-10 08:30N 35°37' E 139°48'0 0.0
2018-Jul-10 08:00N 35°37' E 139°48'0 0.0
2018-Jul-10 07:30N 35°37' E 139°48'0 0.0
2018-Jul-10 07:00N 35°37' E 139°48'0 0.0
2018-Jul-10 05:30N 35°37' E 139°48'0 0.0
2018-Jul-10 05:00N 35°37' E 139°48'0 0.0
2018-Jul-10 04:30N 35°37' E 139°48'0 0.0
2018-Jul-10 04:00N 35°37' E 139°48'0 0.0
2018-Jul-10 03:30N 35°37' E 139°48'0 0.0
2018-Jul-10 03:00N 35°37' E 139°48'0 0.0
2018-Jul-10 02:30N 35°37' E 139°48'0 0.0
2018-Jul-10 02:00N 35°37' E 139°48'0 0.0
2018-Jul-10 01:24N 35°37' E 139°48'0 0.0
2018-Jul-10 01:00N 35°37' E 139°48'0 0.0
2018-Jul-10 00:30N 35°37' E 139°48'0 0.0
2018-Jul-10 00:00N 35°37' E 139°48'0 0.0
2018-Jul-09 23:18N 35°37' E 139°48'0 0.3
2018-Jul-09 23:00N 35°37' E 139°48'0 0.1
2018-Jul-09 22:24N 35°37' E 139°48'0 0.0
2018-Jul-09 21:54N 35°37' E 139°48'0 0.0
2018-Jul-09 21:30N 35°37' E 139°48'0 0.0
2018-Jul-09 21:00N 35°37' E 139°48'0 0.0
2018-Jul-09 20:30N 35°37' E 139°48'0 0.0
2018-Jul-09 20:00N 35°37' E 139°48'0 0.0
2018-Jul-09 19:12N 35°37' E 139°48'0 0.0
2018-Jul-09 19:00N 35°37' E 139°48'0 0.0
2018-Jul-09 18:24N 35°37' E 139°48'0 0.0
2018-Jul-09 17:54N 35°37' E 139°48'0 0.0
2018-Jul-09 17:24N 35°37' E 139°48'0 0.0
2018-Jul-09 17:00N 35°37' E 139°48'0 0.0
2018-Jul-09 16:30N 35°37' E 139°48'0 0.0
2018-Jul-09 15:54N 35°37' E 139°48'  
Track history (hours):
 
Tides and Currents Weather Stations Pressure Air Temp Water Temp Dewpoint Dewpoint Depression Visibility Wind Speed Wind Dir Waves Ship Positions

Sunflower Hakata

Last reported at 2018-Jul-19 15:39 UTC. Time now 2018-Jul-21 07:54 UTC.
Position N 34°46' E 139°14'.

Length 167 m; draft 6.6 m.

Type: Cargo ship. MMSI: 431501764.

Date/timePositionNaut miles runAvg speedWind from/ knotsBaromVisibWave heightAir tempDewpointWater temp
2018-Jul-19 15:39N 34°46' E 139°14'519.7
2018-Jul-19 15:24N 34°50' E 139°17'1019.5
2018-Jul-19 14:55N 34°56' E 139°27'1820.1
2018-Jul-19 14:01N 35°07' E 139°44'815.8
2018-Jul-19 13:30N 35°15' E 139°46'713.1
2018-Jul-19 13:00N 35°21' E 139°42'918.3
2018-Jul-19 12:30N 35°28' E 139°49'714.1
2018-Jul-19 12:00N 35°35' E 139°48'2 0.4
2018-Jul-19 07:15N 35°37' E 139°48'0 0.0
2018-Jul-19 06:57N 35°37' E 139°48'0 0.0
2018-Jul-19 06:27N 35°37' E 139°48'0 0.0
2018-Jul-19 05:45N 35°37' E 139°48'0 0.0
2018-Jul-19 05:27N 35°37' E 139°48'0 0.0
2018-Jul-19 04:57N 35°37' E 139°48'0 0.0
2018-Jul-19 02:21N 35°37' E 139°48'0 0.0
2018-Jul-19 00:33N 35°37' E 139°48'0 0.0
2018-Jul-18 20:35N 35°37' E 139°48'0 0.0
2018-Jul-18 20:30N 35°37' E 139°48'1 1.9
2018-Jul-18 20:01N 35°36' E 139°47'815.7
2018-Jul-18 19:31N 35°29' E 139°52'816.5
2018-Jul-18 19:00N 35°22' E 139°45'611.8
2018-Jul-18 18:30N 35°17' E 139°46'714.0
2018-Jul-18 18:00N 35°10' E 139°46'1019.6
2018-Jul-18 17:30N 35°01' E 139°41'1121.1
2018-Jul-18 16:59N 34°54' E 139°30'1121.1
2018-Jul-18 16:29N 34°49' E 139°19'21420.7
2018-Jul-18 06:10N 33°38' E 135°15'522.2
2018-Jul-18 05:57N 33°41' E 135°11'1022.4
2018-Jul-18 05:30N 33°49' E 135°03'1121.3
2018-Jul-18 05:00N 33°58' E 134°58'1122.2
2018-Jul-18 04:30N 34°09' E 134°58'1122.1
2018-Jul-18 04:00N 34°21' E 134°59'1121.8
2018-Jul-18 03:30N 34°31' E 135°02'713.1
2018-Jul-18 02:58N 34°36' E 134°56'920.8
2018-Jul-18 02:30N 34°32' E 134°46'1121.6
2018-Jul-18 02:00N 34°34' E 134°33'1121.7
2018-Jul-18 01:30N 34°35' E 134°20'  
2018-Jul-15 02:14N 33°26' E 134°59'19321.3
2018-Jul-14 17:10N 34°29' E 138°39'820.6
2018-Jul-14 16:46N 34°31' E 138°49'1718.8
2018-Jul-14 15:52N 34°40' E 139°07'719.7
2018-Jul-14 15:30N 34°45' E 139°13'919.2
2018-Jul-14 15:01N 34°52' E 139°20'1019.6
2018-Jul-14 14:30N 34°58' E 139°29'2019.8
2018-Jul-14 13:31N 35°12' E 139°46'612.3
2018-Jul-14 13:00N 35°18' E 139°44'714.7
2018-Jul-14 12:31N 35°25' E 139°44'918.0
2018-Jul-14 12:00N 35°32' E 139°51'610.3
2018-Jul-14 11:28N 35°37' E 139°48'0 0.0
2018-Jul-14 10:52N 35°37' E 139°48'0 0.0
2018-Jul-14 10:16N 35°37' E 139°48'0 0.0
2018-Jul-14 08:40N 35°37' E 139°48'0 0.0
2018-Jul-14 08:28N 35°37' E 139°48'0 0.0
2018-Jul-14 07:22N 35°37' E 139°48'0 0.0
2018-Jul-14 06:58N 35°37' E 139°48'0 0.0
2018-Jul-14 06:22N 35°37' E 139°48'0 0.0
2018-Jul-14 05:10N 35°37' E 139°48'0 0.0
2018-Jul-14 01:22N 35°37' E 139°48'0 0.0
2018-Jul-13 23:58N 35°37' E 139°48'0 0.0
2018-Jul-13 23:28N 35°37' E 139°48'0 0.0
2018-Jul-13 22:58N 35°37' E 139°48'0 0.0
2018-Jul-13 22:28N 35°37' E 139°48'0 0.0
2018-Jul-13 21:46N 35°37' E 139°48'0 0.0
2018-Jul-13 21:28N 35°37' E 139°48'0 0.0
2018-Jul-13 20:58N 35°37' E 139°48'0 0.0
2018-Jul-13 20:30N 35°37' E 139°48'1 2.6
2018-Jul-13 20:00N 35°36' E 139°47'815.2
2018-Jul-13 19:30N 35°29' E 139°52'816.4
2018-Jul-13 19:00N 35°22' E 139°45'611.9
2018-Jul-13 18:30N 35°16' E 139°46'714.9
2018-Jul-13 18:00N 35°09' E 139°47'1019.1
2018-Jul-13 17:30N 35°02' E 139°39'1020.3
2018-Jul-13 17:00N 34°56' E 139°29'1120.9
2018-Jul-13 16:30N 34°49' E 139°19'3220.0
2018-Jul-13 14:53N 34°29' E 138°48'820.2
2018-Jul-13 14:30N 34°27' E 138°39'2321.4
2018-Jul-13 13:27N 34°22' E 138°12'921.3
2018-Jul-13 13:00N 34°19' E 138°01'14520.0
2018-Jul-13 05:46N 33°40' E 135°13'623.2
2018-Jul-13 05:30N 33°44' E 135°08'1122.9
2018-Jul-13 05:00N 33°53' E 134°59'1223.2
2018-Jul-13 04:30N 34°04' E 134°59'1224.9
2018-Jul-13 04:01N 34°17' E 134°58'1223.5
2018-Jul-13 03:30N 34°28' E 135°01'917.0
2018-Jul-13 02:59N 34°37' E 134°58'1223.3
2018-Jul-13 02:29N 34°32' E 134°45'1122.1
2018-Jul-13 02:00N 34°33' E 134°32'1122.5
2018-Jul-13 01:30N 34°35' E 134°19'18 4.6
2018-Jul-12 21:29N 34°29' E 133°57'  
2018-Jul-10 16:41N 34°42' E 139°07'717.8
2018-Jul-10 16:18N 34°47' E 139°13'517.9
2018-Jul-10 16:00N 34°51' E 139°17'916.4
2018-Jul-10 15:28N 34°56' E 139°26'817.6
2018-Jul-10 15:00N 35°01' E 139°34'1019.7
2018-Jul-10 14:30N 35°07' E 139°43'816.3
2018-Jul-10 14:01N 35°14' E 139°46'612.6
2018-Jul-10 13:30N 35°20' E 139°42'816.8
2018-Jul-10 13:00N 35°27' E 139°48'713.2
2018-Jul-10 12:29N 35°34' E 139°49'3 6.9
2018-Jul-10 12:00N 35°37' E 139°48'0 0.0
2018-Jul-10 11:30N 35°37' E 139°48'0 0.0
2018-Jul-10 11:00N 35°37' E 139°48'0 0.0
2018-Jul-10 10:24N 35°37' E 139°48'0 0.0
2018-Jul-10 09:48N 35°37' E 139°48'0 0.0
2018-Jul-10 09:24N 35°37' E 139°48'0 0.0
2018-Jul-10 08:54N 35°37' E 139°48'0 0.0
2018-Jul-10 08:30N 35°37' E 139°48'0 0.0
2018-Jul-10 08:00N 35°37' E 139°48'0 0.0
2018-Jul-10 07:30N 35°37' E 139°48'0 0.0
2018-Jul-10 07:00N 35°37' E 139°48'0 0.0
2018-Jul-10 05:30N 35°37' E 139°48'0 0.0
2018-Jul-10 05:00N 35°37' E 139°48'0 0.0
2018-Jul-10 04:30N 35°37' E 139°48'0 0.0
2018-Jul-10 04:00N 35°37' E 139°48'0 0.0
2018-Jul-10 03:30N 35°37' E 139°48'0 0.0
2018-Jul-10 03:00N 35°37' E 139°48'0 0.0
2018-Jul-10 02:30N 35°37' E 139°48'0 0.0
2018-Jul-10 02:00N 35°37' E 139°48'0 0.0
2018-Jul-10 01:24N 35°37' E 139°48'0 0.0
2018-Jul-10 01:00N 35°37' E 139°48'0 0.0
2018-Jul-10 00:30N 35°37' E 139°48'0 0.0
2018-Jul-10 00:00N 35°37' E 139°48'0 0.0
2018-Jul-09 23:18N 35°37' E 139°48'0 0.3
2018-Jul-09 23:00N 35°37' E 139°48'0 0.1
2018-Jul-09 22:24N 35°37' E 139°48'0 0.0
2018-Jul-09 21:54N 35°37' E 139°48'0 0.0
2018-Jul-09 21:30N 35°37' E 139°48'0 0.0
2018-Jul-09 21:00N 35°37' E 139°48'0 0.0
2018-Jul-09 20:30N 35°37' E 139°48'0 0.0
2018-Jul-09 20:00N 35°37' E 139°48'0 0.0
2018-Jul-09 19:12N 35°37' E 139°48'0 0.0
2018-Jul-09 19:00N 35°37' E 139°48'0 0.0
2018-Jul-09 18:24N 35°37' E 139°48'0 0.0
2018-Jul-09 17:54N 35°37' E 139°48'0 0.0
2018-Jul-09 17:24N 35°37' E 139°48'0 0.0
2018-Jul-09 17:00N 35°37' E 139°48'0 0.0
2018-Jul-09 16:30N 35°37' E 139°48'0 0.0
2018-Jul-09 15:54N 35°37' E 139°48'  

Dump ship's entire track history